sensor_id;sensor_type;location;lat;lon;timestamp;pressure;altitude;pressure_sealevel;temperature;humidity
33155;BME280;19511;42.682;23.332;2023-02-04T00:00:16;94988.13;;;0.92;100.00
33155;BME280;19511;42.682;23.332;2023-02-04T00:02:43;94982.84;;;1.00;100.00
33155;BME280;19511;42.682;23.332;2023-02-04T00:05:10;94982.00;;;0.95;100.00
33155;BME280;19511;42.682;23.332;2023-02-04T00:07:36;94966.00;;;0.78;100.00
33155;BME280;19511;42.682;23.332;2023-02-04T00:10:05;94958.53;;;0.75;100.00
33155;BME280;19511;42.682;23.332;2023-02-04T00:12:31;94970.31;;;0.79;100.00
33155;BME280;19511;42.682;23.332;2023-02-04T00:15:02;94932.00;;;0.56;100.00
33155;BME280;19511;42.682;23.332;2023-02-04T00:17:27;94959.56;;;0.86;100.00
33155;BME280;19511;42.682;23.332;2023-02-04T00:19:58;94938.69;;;0.74;100.00
33155;BME280;19511;42.682;23.332;2023-02-04T00:22:28;94958.78;;;0.70;100.00
33155;BME280;19511;42.682;23.332;2023-02-04T00:24:57;94958.38;;;0.68;100.00
33155;BME280;19511;42.682;23.332;2023-02-04T00:27:23;94960.72;;;0.69;100.00
33155;BME280;19511;42.682;23.332;2023-02-04T00:29:50;94953.34;;;0.70;100.00
33155;BME280;19511;42.682;23.332;2023-02-04T00:32:16;94936.22;;;0.53;100.00
33155;BME280;19511;42.682;23.332;2023-02-04T00:34:42;94926.50;;;0.52;100.00
33155;BME280;19511;42.682;23.332;2023-02-04T00:37:11;94945.00;;;0.46;100.00
33155;BME280;19511;42.682;23.332;2023-02-04T00:39:36;94942.56;;;0.57;100.00
33155;BME280;19511;42.682;23.332;2023-02-04T00:42:02;94918.56;;;0.47;100.00
33155;BME280;19511;42.682;23.332;2023-02-04T00:44:29;94943.06;;;0.47;100.00
33155;BME280;19511;42.682;23.332;2023-02-04T00:46:55;94939.66;;;0.50;100.00
33155;BME280;19511;42.682;23.332;2023-02-04T00:49:21;94949.13;;;0.56;100.00
33155;BME280;19511;42.682;23.332;2023-02-04T00:51:46;94939.19;;;0.48;100.00
33155;BME280;19511;42.682;23.332;2023-02-04T00:54:12;94818.66;;;-0.32;100.00
33155;BME280;19511;42.682;23.332;2023-02-04T00:56:40;94931.94;;;0.52;100.00
33155;BME280;19511;42.682;23.332;2023-02-04T00:59:06;94908.66;;;0.39;100.00
33155;BME280;19511;42.682;23.332;2023-02-04T01:01:35;94896.00;;;0.14;100.00
33155;BME280;19511;42.682;23.332;2023-02-04T01:04:01;94920.47;;;0.30;100.00
33155;BME280;19511;42.682;23.332;2023-02-04T01:06:26;94915.94;;;0.51;100.00
33155;BME280;19511;42.682;23.332;2023-02-04T01:08:52;94802.03;;;-0.15;100.00
33155;BME280;19511;42.682;23.332;2023-02-04T01:11:17;94882.59;;;0.54;100.00
33155;BME280;19511;42.682;23.332;2023-02-04T01:13:43;94791.97;;;0.02;100.00
33155;BME280;19511;42.682;23.332;2023-02-04T01:16:09;94902.31;;;0.51;100.00
33155;BME280;19511;42.682;23.332;2023-02-04T01:18:34;94887.06;;;0.46;100.00
33155;BME280;19511;42.682;23.332;2023-02-04T01:21:00;94896.38;;;0.45;100.00
33155;BME280;19511;42.682;23.332;2023-02-04T01:23:25;94859.50;;;0.31;100.00
33155;BME280;19511;42.682;23.332;2023-02-04T01:25:51;94788.25;;;-0.22;100.00
33155;BME280;19511;42.682;23.332;2023-02-04T01:28:17;94833.19;;;0.20;100.00
33155;BME280;19511;42.682;23.332;2023-02-04T01:30:46;94871.88;;;0.45;100.00
33155;BME280;19511;42.682;23.332;2023-02-04T01:33:11;94869.06;;;0.57;100.00
33155;BME280;19511;42.682;23.332;2023-02-04T01:35:37;94863.25;;;0.75;100.00
33155;BME280;19511;42.682;23.332;2023-02-04T01:38:02;94876.88;;;0.59;100.00
33155;BME280;19511;42.682;23.332;2023-02-04T01:40:28;94863.69;;;0.61;100.00
33155;BME280;19511;42.682;23.332;2023-02-04T01:42:54;94858.41;;;0.68;100.00
33155;BME280;19511;42.682;23.332;2023-02-04T01:45:19;94852.13;;;0.48;100.00
33155;BME280;19511;42.682;23.332;2023-02-04T01:47:45;94830.03;;;0.34;100.00
33155;BME280;19511;42.682;23.332;2023-02-04T01:50:13;94748.34;;;-0.18;100.00
33155;BME280;19511;42.682;23.332;2023-02-04T01:52:40;94833.06;;;0.48;100.00
33155;BME280;19511;42.682;23.332;2023-02-04T01:55:31;94844.13;;;0.55;100.00
33155;BME280;19511;42.682;23.332;2023-02-04T01:57:57;94831.75;;;0.42;100.00
33155;BME280;19511;42.682;23.332;2023-02-04T02:00:29;94735.41;;;-0.09;100.00
33155;BME280;19511;42.682;23.332;2023-02-04T02:02:56;94836.91;;;0.63;100.00
33155;BME280;19511;42.682;23.332;2023-02-04T02:05:51;94843.41;;;0.58;100.00
33155;BME280;19511;42.682;23.332;2023-02-04T02:08:17;94738.38;;;-0.14;100.00
33155;BME280;19511;42.682;23.332;2023-02-04T02:10:46;94843.84;;;0.60;100.00
33155;BME280;19511;42.682;23.332;2023-02-04T02:13:15;94826.66;;;0.56;100.00
33155;BME280;19511;42.682;23.332;2023-02-04T02:15:41;94830.44;;;0.68;100.00
33155;BME280;19511;42.682;23.332;2023-02-04T02:18:07;94818.22;;;0.61;100.00
33155;BME280;19511;42.682;23.332;2023-02-04T02:20:33;94821.13;;;0.69;100.00
33155;BME280;19511;42.682;23.332;2023-02-04T02:25:24;94675.31;;;-0.20;100.00
33155;BME280;19511;42.682;23.332;2023-02-04T02:27:49;94789.88;;;0.62;100.00
33155;BME280;19511;42.682;23.332;2023-02-04T02:30:18;94676.19;;;0.01;100.00
33155;BME280;19511;42.682;23.332;2023-02-04T02:32:48;94694.31;;;0.12;100.00
33155;BME280;19511;42.682;23.332;2023-02-04T02:35:15;94737.56;;;0.53;100.00
33155;BME280;19511;42.682;23.332;2023-02-04T02:37:41;94675.00;;;0.18;100.00
33155;BME280;19511;42.682;23.332;2023-02-04T02:40:07;94733.78;;;0.58;100.00
33155;BME280;19511;42.682;23.332;2023-02-04T02:42:33;94634.94;;;-0.02;100.00
33155;BME280;19511;42.682;23.332;2023-02-04T02:45:02;94742.91;;;0.85;100.00
33155;BME280;19511;42.682;23.332;2023-02-04T02:47:30;94635.00;;;0.18;100.00
33155;BME280;19511;42.682;23.332;2023-02-04T02:49:55;94752.34;;;0.72;100.00
33155;BME280;19511;42.682;23.332;2023-02-04T02:52:21;94666.34;;;0.31;100.00
33155;BME280;19511;42.682;23.332;2023-02-04T02:54:47;94651.44;;;0.25;100.00
33155;BME280;19511;42.682;23.332;2023-02-04T02:57:15;94724.69;;;0.70;100.00
33155;BME280;19511;42.682;23.332;2023-02-04T02:59:41;94732.56;;;0.75;100.00
33155;BME280;19511;42.682;23.332;2023-02-04T03:02:08;94709.06;;;0.67;100.00
33155;BME280;19511;42.682;23.332;2023-02-04T03:04:42;94709.16;;;0.70;100.00
33155;BME280;19511;42.682;23.332;2023-02-04T03:07:09;94726.59;;;0.85;100.00
33155;BME280;19511;42.682;23.332;2023-02-04T03:09:35;94727.28;;;0.82;100.00
33155;BME280;19511;42.682;23.332;2023-02-04T03:12:01;94730.44;;;0.84;100.00
33155;BME280;19511;42.682;23.332;2023-02-04T03:14:32;94748.06;;;0.90;100.00
33155;BME280;19511;42.682;23.332;2023-02-04T03:16:58;94636.25;;;0.05;100.00
33155;BME280;19511;42.682;23.332;2023-02-04T03:19:31;94637.38;;;0.04;100.00
33155;BME280;19511;42.682;23.332;2023-02-04T03:22:02;94730.69;;;0.59;100.00
33155;BME280;19511;42.682;23.332;2023-02-04T03:24:36;94610.19;;;-0.16;100.00
33155;BME280;19511;42.682;23.332;2023-02-04T03:27:02;94715.22;;;0.63;100.00
33155;BME280;19511;42.682;23.332;2023-02-04T03:29:31;94702.91;;;0.50;100.00
33155;BME280;19511;42.682;23.332;2023-02-04T03:32:02;94728.00;;;0.79;100.00
33155;BME280;19511;42.682;23.332;2023-02-04T03:34:30;94713.94;;;0.77;100.00
33155;BME280;19511;42.682;23.332;2023-02-04T03:36:56;94713.78;;;0.70;100.00
33155;BME280;19511;42.682;23.332;2023-02-04T03:39:21;94715.31;;;0.87;100.00
33155;BME280;19511;42.682;23.332;2023-02-04T03:41:46;94615.31;;;0.25;100.00
33155;BME280;19511;42.682;23.332;2023-02-04T03:44:12;94623.50;;;0.09;100.00
33155;BME280;19511;42.682;23.332;2023-02-04T03:46:37;94718.41;;;0.85;100.00
33155;BME280;19511;42.682;23.332;2023-02-04T03:49:03;94695.25;;;0.75;100.00
33155;BME280;19511;42.682;23.332;2023-02-04T03:51:28;94607.22;;;0.28;100.00
33155;BME280;19511;42.682;23.332;2023-02-04T03:53:53;94673.41;;;0.72;100.00
33155;BME280;19511;42.682;23.332;2023-02-04T03:56:19;94699.41;;;0.89;100.00
33155;BME280;19511;42.682;23.332;2023-02-04T03:58:44;94678.97;;;0.98;100.00
33155;BME280;19511;42.682;23.332;2023-02-04T04:01:10;94654.06;;;0.77;100.00
33155;BME280;19511;42.682;23.332;2023-02-04T04:03:35;94673.59;;;1.02;100.00
33155;BME280;19511;42.682;23.332;2023-02-04T04:06:01;94594.84;;;0.70;100.00
33155;BME280;19511;42.682;23.332;2023-02-04T04:08:31;94611.00;;;0.83;100.00
33155;BME280;19511;42.682;23.332;2023-02-04T04:11:00;94649.81;;;0.99;100.00
33155;BME280;19511;42.682;23.332;2023-02-04T04:13:25;94655.47;;;1.10;100.00
33155;BME280;19511;42.682;23.332;2023-02-04T04:15:51;94643.56;;;0.98;100.00
33155;BME280;19511;42.682;23.332;2023-02-04T04:18:16;94650.75;;;1.07;100.00
33155;BME280;19511;42.682;23.332;2023-02-04T04:20:42;94648.44;;;1.09;100.00
33155;BME280;19511;42.682;23.332;2023-02-04T04:23:07;94648.03;;;1.07;100.00
33155;BME280;19511;42.682;23.332;2023-02-04T04:25:33;94632.50;;;0.88;100.00
33155;BME280;19511;42.682;23.332;2023-02-04T04:27:58;94642.88;;;1.02;100.00
33155;BME280;19511;42.682;23.332;2023-02-04T04:30:23;94548.38;;;0.20;100.00
33155;BME280;19511;42.682;23.332;2023-02-04T04:32:49;94629.84;;;0.72;100.00
33155;BME280;19511;42.682;23.332;2023-02-04T04:35:14;94652.88;;;0.97;100.00
33155;BME280;19511;42.682;23.332;2023-02-04T04:37:40;94662.41;;;1.07;100.00
33155;BME280;19511;42.682;23.332;2023-02-04T04:40:05;94661.06;;;0.97;100.00
33155;BME280;19511;42.682;23.332;2023-02-04T04:42:31;94663.66;;;0.90;100.00
33155;BME280;19511;42.682;23.332;2023-02-04T04:44:59;94664.50;;;0.94;100.00
33155;BME280;19511;42.682;23.332;2023-02-04T04:47:25;94673.91;;;0.97;100.00
33155;BME280;19511;42.682;23.332;2023-02-04T04:49:50;94682.56;;;1.03;100.00
33155;BME280;19511;42.682;23.332;2023-02-04T04:52:16;94602.16;;;0.66;100.00
33155;BME280;19511;42.682;23.332;2023-02-04T04:54:41;94680.81;;;1.14;100.00
33155;BME280;19511;42.682;23.332;2023-02-04T04:57:07;94680.66;;;1.26;100.00
33155;BME280;19511;42.682;23.332;2023-02-04T04:59:32;94618.53;;;0.89;100.00
33155;BME280;19511;42.682;23.332;2023-02-04T05:01:57;94686.94;;;1.30;100.00
33155;BME280;19511;42.682;23.332;2023-02-04T05:04:23;94589.47;;;0.74;100.00
33155;BME280;19511;42.682;23.332;2023-02-04T05:06:48;94673.53;;;1.41;100.00
33155;BME280;19511;42.682;23.332;2023-02-04T05:09:18;94683.91;;;1.55;100.00
33155;BME280;19511;42.682;23.332;2023-02-04T05:11:44;94558.81;;;1.23;100.00
33155;BME280;19511;42.682;23.332;2023-02-04T05:14:09;94680.19;;;2.44;100.00
33155;BME280;19511;42.682;23.332;2023-02-04T05:16:35;94679.22;;;2.59;100.00
33155;BME280;19511;42.682;23.332;2023-02-04T05:19:06;94628.53;;;2.32;100.00
33155;BME280;19511;42.682;23.332;2023-02-04T05:21:32;94620.72;;;2.30;100.00
33155;BME280;19511;42.682;23.332;2023-02-04T05:24:01;94690.50;;;2.92;100.00
33155;BME280;19511;42.682;23.332;2023-02-04T05:26:29;94722.28;;;3.04;100.00
33155;BME280;19511;42.682;23.332;2023-02-04T05:28:58;94619.38;;;2.47;100.00
33155;BME280;19511;42.682;23.332;2023-02-04T05:34:13;94715.69;;;3.05;100.00
33155;BME280;19511;42.682;23.332;2023-02-04T05:36:39;94716.72;;;2.97;100.00
33155;BME280;19511;42.682;23.332;2023-02-04T05:39:04;94732.84;;;3.05;100.00
33155;BME280;19511;42.682;23.332;2023-02-04T05:41:30;94627.13;;;2.41;100.00
33155;BME280;19511;42.682;23.332;2023-02-04T05:43:55;94738.69;;;3.04;100.00
33155;BME280;19511;42.682;23.332;2023-02-04T05:46:20;94718.59;;;2.89;100.00
33155;BME280;19511;42.682;23.332;2023-02-04T05:48:46;94728.47;;;2.97;100.00
33155;BME280;19511;42.682;23.332;2023-02-04T05:51:12;94732.41;;;3.00;100.00
33155;BME280;19511;42.682;23.332;2023-02-04T05:53:49;94730.06;;;3.02;100.00
33155;BME280;19511;42.682;23.332;2023-02-04T05:56:17;94711.28;;;2.97;100.00
33155;BME280;19511;42.682;23.332;2023-02-04T05:58:45;94693.34;;;2.99;100.00
33155;BME280;19511;42.682;23.332;2023-02-04T06:01:16;94699.50;;;2.92;100.00
33155;BME280;19511;42.682;23.332;2023-02-04T06:03:45;94695.50;;;2.83;100.00
33155;BME280;19511;42.682;23.332;2023-02-04T06:06:15;94679.72;;;2.69;100.00
33155;BME280;19511;42.682;23.332;2023-02-04T06:08:40;94711.94;;;2.86;100.00
33155;BME280;19511;42.682;23.332;2023-02-04T06:11:12;94689.25;;;2.82;100.00
33155;BME280;19511;42.682;23.332;2023-02-04T06:13:38;94696.28;;;2.83;100.00
33155;BME280;19511;42.682;23.332;2023-02-04T06:16:03;94712.84;;;2.98;100.00
33155;BME280;19511;42.682;23.332;2023-02-04T06:18:29;94719.19;;;3.05;100.00
33155;BME280;19511;42.682;23.332;2023-02-04T06:21:00;94727.13;;;3.18;100.00
33155;BME280;19511;42.682;23.332;2023-02-04T06:23:30;94716.88;;;3.11;100.00
33155;BME280;19511;42.682;23.332;2023-02-04T06:25:55;94704.03;;;3.12;100.00
33155;BME280;19511;42.682;23.332;2023-02-04T06:28:22;94709.59;;;3.22;100.00
33155;BME280;19511;42.682;23.332;2023-02-04T06:30:47;94731.22;;;3.35;100.00
33155;BME280;19511;42.682;23.332;2023-02-04T06:33:18;94731.66;;;3.37;100.00
33155;BME280;19511;42.682;23.332;2023-02-04T06:35:47;94717.13;;;3.29;100.00
33155;BME280;19511;42.682;23.332;2023-02-04T06:38:12;94705.03;;;3.34;100.00
33155;BME280;19511;42.682;23.332;2023-02-04T06:40:41;94724.72;;;3.47;100.00
33155;BME280;19511;42.682;23.332;2023-02-04T06:43:07;94659.84;;;3.06;100.00
33155;BME280;19511;42.682;23.332;2023-02-04T06:45:32;94636.25;;;2.90;100.00
33155;BME280;19511;42.682;23.332;2023-02-04T06:48:05;94710.69;;;3.48;100.00
33155;BME280;19511;42.682;23.332;2023-02-04T06:50:31;94711.06;;;3.50;100.00
33155;BME280;19511;42.682;23.332;2023-02-04T06:52:58;94721.28;;;3.53;100.00
33155;BME280;19511;42.682;23.332;2023-02-04T06:55:24;94728.78;;;3.64;100.00
33155;BME280;19511;42.682;23.332;2023-02-04T06:57:50;94699.44;;;3.57;100.00
33155;BME280;19511;42.682;23.332;2023-02-04T07:00:15;94686.94;;;3.56;100.00
33155;BME280;19511;42.682;23.332;2023-02-04T07:02:40;94705.06;;;3.75;100.00
33155;BME280;19511;42.682;23.332;2023-02-04T07:05:07;94695.72;;;3.76;100.00
33155;BME280;19511;42.682;23.332;2023-02-04T07:07:35;94699.09;;;4.07;100.00
33155;BME280;19511;42.682;23.332;2023-02-04T07:10:00;94613.47;;;3.54;100.00
33155;BME280;19511;42.682;23.332;2023-02-04T07:12:27;94703.91;;;4.24;100.00
33155;BME280;19511;42.682;23.332;2023-02-04T07:14:53;94701.56;;;4.27;100.00
33155;BME280;19511;42.682;23.332;2023-02-04T07:17:18;94697.66;;;4.28;100.00
33155;BME280;19511;42.682;23.332;2023-02-04T07:19:44;94707.88;;;4.31;100.00
33155;BME280;19511;42.682;23.332;2023-02-04T07:22:09;94703.19;;;4.35;100.00
33155;BME280;19511;42.682;23.332;2023-02-04T07:24:35;94695.41;;;4.37;100.00
33155;BME280;19511;42.682;23.332;2023-02-04T07:27:00;94682.88;;;4.43;100.00
33155;BME280;19511;42.682;23.332;2023-02-04T07:29:26;94653.91;;;4.35;100.00
33155;BME280;19511;42.682;23.332;2023-02-04T07:31:53;94685.31;;;4.55;100.00
33155;BME280;19511;42.682;23.332;2023-02-04T07:34:25;94661.38;;;4.41;100.00
33155;BME280;19511;42.682;23.332;2023-02-04T07:36:57;94688.47;;;4.57;100.00
33155;BME280;19511;42.682;23.332;2023-02-04T07:39:23;94675.56;;;4.62;100.00
33155;BME280;19511;42.682;23.332;2023-02-04T07:41:48;94675.97;;;4.60;100.00
33155;BME280;19511;42.682;23.332;2023-02-04T07:44:14;94584.94;;;4.11;100.00
33155;BME280;19511;42.682;23.332;2023-02-04T07:46:39;94675.28;;;4.78;100.00
33155;BME280;19511;42.682;23.332;2023-02-04T07:49:05;94677.28;;;4.88;100.00
33155;BME280;19511;42.682;23.332;2023-02-04T07:51:30;94665.13;;;4.93;100.00
33155;BME280;19511;42.682;23.332;2023-02-04T07:53:58;94601.19;;;4.60;100.00
33155;BME280;19511;42.682;23.332;2023-02-04T07:56:23;94655.38;;;4.99;100.00
33155;BME280;19511;42.682;23.332;2023-02-04T07:58:49;94673.09;;;5.19;100.00
33155;BME280;19511;42.682;23.332;2023-02-04T08:01:14;94680.53;;;5.26;100.00
33155;BME280;19511;42.682;23.332;2023-02-04T08:03:41;94588.25;;;4.49;100.00
33155;BME280;19511;42.682;23.332;2023-02-04T08:06:07;94682.03;;;5.02;100.00
33155;BME280;19511;42.682;23.332;2023-02-04T08:08:33;94685.97;;;5.08;100.00
33155;BME280;19511;42.682;23.332;2023-02-04T08:10:59;94680.06;;;5.02;100.00
33155;BME280;19511;42.682;23.332;2023-02-04T08:13:24;94592.09;;;4.34;100.00
33155;BME280;19511;42.682;23.332;2023-02-04T08:15:50;94690.19;;;4.84;100.00
33155;BME280;19511;42.682;23.332;2023-02-04T08:18:16;94679.59;;;4.82;100.00
33155;BME280;19511;42.682;23.332;2023-02-04T08:20:41;94686.28;;;4.88;100.00
33155;BME280;19511;42.682;23.332;2023-02-04T08:23:07;94671.31;;;4.71;100.00
33155;BME280;19511;42.682;23.332;2023-02-04T08:25:32;94686.25;;;4.81;100.00
33155;BME280;19511;42.682;23.332;2023-02-04T08:27:58;94676.41;;;4.73;100.00
33155;BME280;19511;42.682;23.332;2023-02-04T08:30:23;94687.75;;;4.71;100.00
33155;BME280;19511;42.682;23.332;2023-02-04T08:32:49;94628.91;;;4.40;100.00
33155;BME280;19511;42.682;23.332;2023-02-04T08:35:15;94688.91;;;4.67;100.00
33155;BME280;19511;42.682;23.332;2023-02-04T08:37:40;94591.97;;;4.08;100.00
33155;BME280;19511;42.682;23.332;2023-02-04T08:40:06;94670.91;;;4.62;100.00
33155;BME280;19511;42.682;23.332;2023-02-04T08:42:31;94561.44;;;4.03;100.00
33155;BME280;19511;42.682;23.332;2023-02-04T08:44:56;94576.31;;;4.05;100.00
33155;BME280;19511;42.682;23.332;2023-02-04T08:47:22;94662.59;;;4.51;100.00
33155;BME280;19511;42.682;23.332;2023-02-04T08:49:47;94659.09;;;4.51;100.00
33155;BME280;19511;42.682;23.332;2023-02-04T08:52:13;94675.16;;;4.56;100.00
33155;BME280;19511;42.682;23.332;2023-02-04T08:54:38;94575.50;;;3.98;100.00
33155;BME280;19511;42.682;23.332;2023-02-04T08:57:04;94673.97;;;4.57;100.00
33155;BME280;19511;42.682;23.332;2023-02-04T08:59:29;94668.13;;;4.55;100.00
33155;BME280;19511;42.682;23.332;2023-02-04T09:01:55;94672.78;;;4.54;100.00
33155;BME280;19511;42.682;23.332;2023-02-04T09:04:21;94591.53;;;4.03;100.00
33155;BME280;19511;42.682;23.332;2023-02-04T09:06:48;94670.88;;;4.58;100.00
33155;BME280;19511;42.682;23.332;2023-02-04T09:09:14;94658.66;;;4.45;100.00
33155;BME280;19511;42.682;23.332;2023-02-04T09:11:40;94672.34;;;4.45;100.00
33155;BME280;19511;42.682;23.332;2023-02-04T09:14:06;94561.22;;;3.70;100.00
33155;BME280;19511;42.682;23.332;2023-02-04T09:16:31;94664.19;;;4.52;100.00
33155;BME280;19511;42.682;23.332;2023-02-04T09:18:57;94661.84;;;4.51;100.00
33155;BME280;19511;42.682;23.332;2023-02-04T09:21:23;94658.59;;;4.38;100.00
33155;BME280;19511;42.682;23.332;2023-02-04T09:23:49;94647.72;;;4.45;100.00
33155;BME280;19511;42.682;23.332;2023-02-04T09:26:14;94651.66;;;4.51;100.00
33155;BME280;19511;42.682;23.332;2023-02-04T09:28:40;94658.00;;;4.66;100.00
33155;BME280;19511;42.682;23.332;2023-02-04T09:31:06;94645.88;;;4.71;100.00
33155;BME280;19511;42.682;23.332;2023-02-04T09:33:34;94576.00;;;4.21;100.00
33155;BME280;19511;42.682;23.332;2023-02-04T09:36:22;94651.38;;;4.78;100.00
33155;BME280;19511;42.682;23.332;2023-02-04T09:38:52;94639.25;;;4.76;100.00
33155;BME280;19511;42.682;23.332;2023-02-04T09:41:19;94635.22;;;4.51;100.00
33155;BME280;19511;42.682;23.332;2023-02-04T09:43:45;94652.66;;;4.25;100.00
33155;BME280;19511;42.682;23.332;2023-02-04T09:46:23;94644.81;;;4.20;100.00
33155;BME280;19511;42.682;23.332;2023-02-04T09:48:50;94555.69;;;3.59;100.00
33155;BME280;19511;42.682;23.332;2023-02-04T09:51:20;94642.88;;;4.24;100.00
33155;BME280;19511;42.682;23.332;2023-02-04T09:54:03;94643.31;;;4.30;100.00
33155;BME280;19511;42.682;23.332;2023-02-04T09:56:30;94638.25;;;4.32;100.00
33155;BME280;19511;42.682;23.332;2023-02-04T09:58:56;94541.59;;;3.57;100.00
33155;BME280;19511;42.682;23.332;2023-02-04T10:01:26;94653.50;;;4.33;100.00
33155;BME280;19511;42.682;23.332;2023-02-04T10:03:54;94644.53;;;4.36;100.00
33155;BME280;19511;42.682;23.332;2023-02-04T10:06:22;94626.47;;;4.28;100.00
33155;BME280;19511;42.682;23.332;2023-02-04T10:08:49;94615.13;;;4.22;100.00
33155;BME280;19511;42.682;23.332;2023-02-04T10:11:17;94611.94;;;4.16;100.00
33155;BME280;19511;42.682;23.332;2023-02-04T10:13:48;94595.81;;;3.97;100.00
33155;BME280;19511;42.682;23.332;2023-02-04T10:16:17;94616.28;;;4.21;100.00
33155;BME280;19511;42.682;23.332;2023-02-04T10:18:44;94521.66;;;3.53;100.00
33155;BME280;19511;42.682;23.332;2023-02-04T10:21:43;94614.38;;;4.29;100.00
33155;BME280;19511;42.682;23.332;2023-02-04T10:24:04;94596.34;;;4.20;100.00
33155;BME280;19511;42.682;23.332;2023-02-04T10:26:34;94602.69;;;4.39;100.00
33155;BME280;19511;42.682;23.332;2023-02-04T10:29:05;94603.84;;;4.38;100.00
33155;BME280;19511;42.682;23.332;2023-02-04T10:31:36;94594.41;;;4.24;100.00
33155;BME280;19511;42.682;23.332;2023-02-04T10:34:22;94607.00;;;4.40;100.00
33155;BME280;19511;42.682;23.332;2023-02-04T10:36:50;94534.44;;;3.98;100.00
33155;BME280;19511;42.682;23.332;2023-02-04T10:39:21;94512.47;;;3.83;100.00
33155;BME280;19511;42.682;23.332;2023-02-04T10:41:52;94610.50;;;4.40;100.00
33155;BME280;19511;42.682;23.332;2023-02-04T10:44:32;94536.34;;;3.93;100.00
33155;BME280;19511;42.682;23.332;2023-02-04T10:47:19;94602.72;;;4.43;100.00
33155;BME280;19511;42.682;23.332;2023-02-04T10:50:03;94594.47;;;4.39;100.00
33155;BME280;19511;42.682;23.332;2023-02-04T10:52:36;94598.00;;;4.43;100.00
33155;BME280;19511;42.682;23.332;2023-02-04T10:55:05;94592.91;;;4.41;100.00
33155;BME280;19511;42.682;23.332;2023-02-04T10:57:34;94597.22;;;4.43;100.00
33155;BME280;19511;42.682;23.332;2023-02-04T11:00:15;94585.03;;;4.25;100.00
33155;BME280;19511;42.682;23.332;2023-02-04T11:05:37;94583.91;;;4.37;100.00
33155;BME280;19511;42.682;23.332;2023-02-04T11:08:18;94512.16;;;3.96;100.00
33155;BME280;19511;42.682;23.332;2023-02-04T11:10:45;94571.00;;;4.38;100.00
33155;BME280;19511;42.682;23.332;2023-02-04T11:13:21;94588.25;;;4.42;100.00
33155;BME280;19511;42.682;23.332;2023-02-04T11:15:49;94569.44;;;4.44;100.00
33155;BME280;19511;42.682;23.332;2023-02-04T11:20:48;94572.63;;;4.50;100.00
33155;BME280;19511;42.682;23.332;2023-02-04T11:23:16;94565.59;;;4.60;100.00
33155;BME280;19511;42.682;23.332;2023-02-04T11:26:11;94482.47;;;4.05;100.00
33155;BME280;19511;42.682;23.332;2023-02-04T11:34:08;94576.97;;;4.62;100.00
33155;BME280;19511;42.682;23.332;2023-02-04T11:36:50;94574.22;;;4.62;100.00
33155;BME280;19511;42.682;23.332;2023-02-04T11:39:18;94530.28;;;4.33;100.00
33155;BME280;19511;42.682;23.332;2023-02-04T11:41:45;94473.00;;;3.84;100.00
33155;BME280;19511;42.682;23.332;2023-02-04T11:44:12;94572.94;;;4.37;100.00
33155;BME280;19511;42.682;23.332;2023-02-04T11:46:38;94473.31;;;3.72;100.00
33155;BME280;19511;42.682;23.332;2023-02-04T12:01:42;94576.63;;;4.78;100.00
33155;BME280;19511;42.682;23.332;2023-02-04T12:04:22;94572.66;;;4.64;100.00
33155;BME280;19511;42.682;23.332;2023-02-04T12:07:00;94574.19;;;4.47;100.00
33155;BME280;19511;42.682;23.332;2023-02-04T12:09:29;94488.97;;;3.75;100.00
33155;BME280;19511;42.682;23.332;2023-02-04T12:12:00;94576.00;;;4.21;100.00
33155;BME280;19511;42.682;23.332;2023-02-04T12:14:37;94474.38;;;3.49;100.00
33155;BME280;19511;42.682;23.332;2023-02-04T12:17:17;94559.50;;;4.07;100.00
33155;BME280;19511;42.682;23.332;2023-02-04T12:19:46;94567.03;;;4.24;100.00
33155;BME280;19511;42.682;23.332;2023-02-04T12:22:11;94550.09;;;4.01;100.00
33155;BME280;19511;42.682;23.332;2023-02-04T12:24:38;94556.38;;;4.08;100.00
33155;BME280;19511;42.682;23.332;2023-02-04T12:27:06;94568.03;;;3.95;100.00
33155;BME280;19511;42.682;23.332;2023-02-04T12:29:35;94541.78;;;3.83;100.00
33155;BME280;19511;42.682;23.332;2023-02-04T12:32:00;94566.91;;;4.03;100.00
33155;BME280;19511;42.682;23.332;2023-02-04T12:34:27;94559.03;;;3.94;100.00
33155;BME280;19511;42.682;23.332;2023-02-04T12:36:56;94567.63;;;3.92;100.00
33155;BME280;19511;42.682;23.332;2023-02-04T12:39:25;94560.59;;;3.91;100.00
33155;BME280;19511;42.682;23.332;2023-02-04T12:41:50;94560.28;;;4.04;100.00
33155;BME280;19511;42.682;23.332;2023-02-04T12:44:16;94557.16;;;4.05;100.00
33155;BME280;19511;42.682;23.332;2023-02-04T12:46:41;94531.63;;;3.87;100.00
33155;BME280;19511;42.682;23.332;2023-02-04T12:49:07;94560.69;;;4.09;100.00
33155;BME280;19511;42.682;23.332;2023-02-04T12:51:36;94545.03;;;4.03;100.00
33155;BME280;19511;42.682;23.332;2023-02-04T12:54:04;94538.03;;;4.09;100.00
33155;BME280;19511;42.682;23.332;2023-02-04T12:56:30;94548.16;;;4.08;100.00
33155;BME280;19511;42.682;23.332;2023-02-04T12:58:58;94556.47;;;4.30;100.00
33155;BME280;19511;42.682;23.332;2023-02-04T13:01:24;94560.03;;;4.31;100.00
33155;BME280;19511;42.682;23.332;2023-02-04T13:03:49;94534.97;;;4.29;100.00
33155;BME280;19511;42.682;23.332;2023-02-04T13:06:14;94437.38;;;3.70;100.00
33155;BME280;19511;42.682;23.332;2023-02-04T13:08:41;94559.25;;;4.37;100.00
33155;BME280;19511;42.682;23.332;2023-02-04T13:11:06;94457.28;;;3.67;100.00
33155;BME280;19511;42.682;23.332;2023-02-04T13:13:32;94533.75;;;4.15;100.00
33155;BME280;19511;42.682;23.332;2023-02-04T13:15:57;94544.34;;;4.20;100.00
33155;BME280;19511;42.682;23.332;2023-02-04T13:18:23;94558.38;;;4.19;100.00
33155;BME280;19511;42.682;23.332;2023-02-04T13:20:48;94549.78;;;4.13;100.00